Amagansett, New York
Current Conditions -  °F | °C
As of 4:56 AM on Wednesday 26 Nov 2014 (Local Time) from KGON Reporting Station
Overcast Overcast  
Wind Chill: 41°   Ceiling: 10000
Heat Index: 46°   Visibility: 8mi
Dew Point: 30°   Wind: 12mph
Humidity: 54%   Direction: 360°N
Pressure: 30.14"   Gusts: NA
Location:  40.97°N, 72.14°W
Report Text: KGON 260956Z AUTO 36010KT 8SM OVC100 08/M01 A3014 RMK AO2 SLP206 T00781011
Loading
Personal Weather Stations






























Interactive Weather Map New forecast layout! Learn more

10-Day Weather Forecast

Advertisements
Track Severe Weather on mobile